sensor_id;sensor_type;location;lat;lon;timestamp;P1;durP1;ratioP1;P2;durP2;ratioP2
38615;SDS011;24370;51.986;4.666;2022-12-18T00:00:40;111.17;;;31.53;;
38615;SDS011;24370;51.986;4.666;2022-12-18T00:03:06;115.90;;;32.43;;
38615;SDS011;24370;51.986;4.666;2022-12-18T00:05:31;93.03;;;26.17;;
38615;SDS011;24370;51.986;4.666;2022-12-18T00:07:57;109.67;;;29.60;;
38615;SDS011;24370;51.986;4.666;2022-12-18T00:10:22;109.93;;;31.73;;
38615;SDS011;24370;51.986;4.666;2022-12-18T00:12:48;124.80;;;34.43;;
38615;SDS011;24370;51.986;4.666;2022-12-18T00:15:13;124.93;;;32.97;;
38615;SDS011;24370;51.986;4.666;2022-12-18T00:17:38;120.03;;;33.60;;
38615;SDS011;24370;51.986;4.666;2022-12-18T00:20:04;130.70;;;34.83;;
38615;SDS011;24370;51.986;4.666;2022-12-18T00:22:30;130.67;;;35.30;;
38615;SDS011;24370;51.986;4.666;2022-12-18T00:24:55;144.47;;;37.37;;
38615;SDS011;24370;51.986;4.666;2022-12-18T00:27:20;106.30;;;26.83;;
38615;SDS011;24370;51.986;4.666;2022-12-18T00:29:47;121.97;;;32.23;;
38615;SDS011;24370;51.986;4.666;2022-12-18T00:32:13;114.00;;;31.03;;
38615;SDS011;24370;51.986;4.666;2022-12-18T00:34:38;121.03;;;32.40;;
38615;SDS011;24370;51.986;4.666;2022-12-18T00:37:04;125.27;;;30.47;;
38615;SDS011;24370;51.986;4.666;2022-12-18T00:39:29;121.00;;;29.23;;
38615;SDS011;24370;51.986;4.666;2022-12-18T00:41:54;117.50;;;31.33;;
38615;SDS011;24370;51.986;4.666;2022-12-18T00:44:38;111.70;;;31.97;;
38615;SDS011;24370;51.986;4.666;2022-12-18T00:47:04;122.23;;;31.37;;
38615;SDS011;24370;51.986;4.666;2022-12-18T00:49:29;92.60;;;28.80;;
38615;SDS011;24370;51.986;4.666;2022-12-18T00:51:54;104.63;;;29.17;;
38615;SDS011;24370;51.986;4.666;2022-12-18T00:54:20;103.80;;;29.43;;
38615;SDS011;24370;51.986;4.666;2022-12-18T00:56:45;158.37;;;31.93;;
38615;SDS011;24370;51.986;4.666;2022-12-18T00:59:11;99.27;;;28.87;;
38615;SDS011;24370;51.986;4.666;2022-12-18T01:01:36;83.30;;;22.10;;
38615;SDS011;24370;51.986;4.666;2022-12-18T01:04:02;105.87;;;28.87;;
38615;SDS011;24370;51.986;4.666;2022-12-18T01:06:28;111.20;;;27.13;;
38615;SDS011;24370;51.986;4.666;2022-12-18T01:08:55;105.17;;;30.40;;
38615;SDS011;24370;51.986;4.666;2022-12-18T01:11:20;113.37;;;28.17;;
38615;SDS011;24370;51.986;4.666;2022-12-18T01:13:47;110.07;;;28.80;;
38615;SDS011;24370;51.986;4.666;2022-12-18T01:16:13;104.63;;;25.70;;
38615;SDS011;24370;51.986;4.666;2022-12-18T01:18:39;97.90;;;29.97;;
38615;SDS011;24370;51.986;4.666;2022-12-18T01:21:08;104.07;;;29.10;;
38615;SDS011;24370;51.986;4.666;2022-12-18T01:23:36;100.00;;;30.70;;
38615;SDS011;24370;51.986;4.666;2022-12-18T01:26:10;124.93;;;30.17;;
38615;SDS011;24370;51.986;4.666;2022-12-18T01:28:37;110.23;;;30.07;;
38615;SDS011;24370;51.986;4.666;2022-12-18T01:31:12;115.17;;;28.53;;
38615;SDS011;24370;51.986;4.666;2022-12-18T01:33:45;104.43;;;29.25;;
38615;SDS011;24370;51.986;4.666;2022-12-18T01:41:09;79.63;;;25.63;;
38615;SDS011;24370;51.986;4.666;2022-12-18T01:46:06;91.60;;;25.37;;
38615;SDS011;24370;51.986;4.666;2022-12-18T01:48:32;103.77;;;27.03;;
38615;SDS011;24370;51.986;4.666;2022-12-18T01:50:57;78.10;;;25.57;;
38615;SDS011;24370;51.986;4.666;2022-12-18T01:53:26;97.03;;;27.07;;
38615;SDS011;24370;51.986;4.666;2022-12-18T01:55:52;99.27;;;26.53;;
38615;SDS011;24370;51.986;4.666;2022-12-18T01:58:21;91.03;;;27.67;;
38615;SDS011;24370;51.986;4.666;2022-12-18T02:00:54;86.63;;;27.93;;
38615;SDS011;24370;51.986;4.666;2022-12-18T02:03:20;86.43;;;25.80;;
38615;SDS011;24370;51.986;4.666;2022-12-18T02:05:50;94.17;;;28.03;;
38615;SDS011;24370;51.986;4.666;2022-12-18T02:11:36;97.80;;;28.40;;
38615;SDS011;24370;51.986;4.666;2022-12-18T02:17:04;98.17;;;27.53;;
38615;SDS011;24370;51.986;4.666;2022-12-18T02:25:21;103.83;;;26.23;;
38615;SDS011;24370;51.986;4.666;2022-12-18T02:27:51;91.03;;;26.40;;
38615;SDS011;24370;51.986;4.666;2022-12-18T02:30:17;91.03;;;24.77;;
38615;SDS011;24370;51.986;4.666;2022-12-18T02:32:45;90.50;;;25.97;;
38615;SDS011;24370;51.986;4.666;2022-12-18T02:35:23;91.32;;;27.48;;
38615;SDS011;24370;51.986;4.666;2022-12-18T02:37:50;97.70;;;27.97;;
38615;SDS011;24370;51.986;4.666;2022-12-18T02:40:17;94.43;;;29.10;;
38615;SDS011;24370;51.986;4.666;2022-12-18T02:42:44;86.80;;;28.40;;
38615;SDS011;24370;51.986;4.666;2022-12-18T02:45:09;95.60;;;27.77;;
38615;SDS011;24370;51.986;4.666;2022-12-18T02:47:39;96.50;;;28.93;;
38615;SDS011;24370;51.986;4.666;2022-12-18T02:50:30;98.03;;;30.07;;
38615;SDS011;24370;51.986;4.666;2022-12-18T02:56:15;116.57;;;28.57;;
38615;SDS011;24370;51.986;4.666;2022-12-18T02:59:02;90.30;;;24.77;;
38615;SDS011;24370;51.986;4.666;2022-12-18T03:01:43;88.23;;;25.63;;
38615;SDS011;24370;51.986;4.666;2022-12-18T03:07:08;86.10;;;25.47;;
38615;SDS011;24370;51.986;4.666;2022-12-18T03:09:42;79.93;;;25.27;;
38615;SDS011;24370;51.986;4.666;2022-12-18T03:12:16;94.20;;;25.13;;
38615;SDS011;24370;51.986;4.666;2022-12-18T03:14:49;79.60;;;24.03;;
38615;SDS011;24370;51.986;4.666;2022-12-18T03:17:19;85.47;;;26.77;;
38615;SDS011;24370;51.986;4.666;2022-12-18T03:19:47;85.47;;;23.90;;
38615;SDS011;24370;51.986;4.666;2022-12-18T03:22:15;84.00;;;24.80;;
38615;SDS011;24370;51.986;4.666;2022-12-18T03:24:41;105.10;;;27.10;;
38615;SDS011;24370;51.986;4.666;2022-12-18T03:27:08;61.77;;;19.23;;
38615;SDS011;24370;51.986;4.666;2022-12-18T03:29:42;78.57;;;25.37;;
38615;SDS011;24370;51.986;4.666;2022-12-18T03:32:11;81.87;;;24.63;;
38615;SDS011;24370;51.986;4.666;2022-12-18T03:34:41;85.27;;;27.63;;
38615;SDS011;24370;51.986;4.666;2022-12-18T03:37:08;88.77;;;26.37;;
38615;SDS011;24370;51.986;4.666;2022-12-18T03:39:34;84.47;;;23.53;;
38615;SDS011;24370;51.986;4.666;2022-12-18T03:42:25;87.43;;;25.17;;
38615;SDS011;24370;51.986;4.666;2022-12-18T03:47:28;83.57;;;25.13;;
38615;SDS011;24370;51.986;4.666;2022-12-18T03:49:59;85.47;;;24.40;;
38615;SDS011;24370;51.986;4.666;2022-12-18T03:52:49;70.30;;;24.30;;
38615;SDS011;24370;51.986;4.666;2022-12-18T03:55:20;85.22;;;23.98;;
38615;SDS011;24370;51.986;4.666;2022-12-18T03:57:47;80.83;;;24.90;;
38615;SDS011;24370;51.986;4.666;2022-12-18T04:00:14;71.67;;;22.83;;
38615;SDS011;24370;51.986;4.666;2022-12-18T04:02:44;81.43;;;25.20;;
38615;SDS011;24370;51.986;4.666;2022-12-18T04:05:14;71.43;;;23.60;;
38615;SDS011;24370;51.986;4.666;2022-12-18T04:07:41;80.60;;;24.47;;
38615;SDS011;24370;51.986;4.666;2022-12-18T04:10:08;82.53;;;25.17;;
38615;SDS011;24370;51.986;4.666;2022-12-18T04:12:36;70.77;;;23.40;;
38615;SDS011;24370;51.986;4.666;2022-12-18T04:15:02;77.50;;;24.53;;
38615;SDS011;24370;51.986;4.666;2022-12-18T04:17:28;80.37;;;25.23;;
38615;SDS011;24370;51.986;4.666;2022-12-18T04:19:53;82.60;;;26.93;;
38615;SDS011;24370;51.986;4.666;2022-12-18T04:22:18;79.77;;;25.57;;
38615;SDS011;24370;51.986;4.666;2022-12-18T04:24:44;77.93;;;26.03;;
38615;SDS011;24370;51.986;4.666;2022-12-18T04:27:09;79.00;;;24.43;;
38615;SDS011;24370;51.986;4.666;2022-12-18T04:29:35;72.50;;;24.17;;
38615;SDS011;24370;51.986;4.666;2022-12-18T04:32:00;79.73;;;24.67;;
38615;SDS011;24370;51.986;4.666;2022-12-18T04:34:25;83.27;;;28.80;;
38615;SDS011;24370;51.986;4.666;2022-12-18T04:36:51;81.23;;;26.27;;
38615;SDS011;24370;51.986;4.666;2022-12-18T04:39:16;78.37;;;27.63;;
38615;SDS011;24370;51.986;4.666;2022-12-18T04:41:42;75.77;;;25.43;;
38615;SDS011;24370;51.986;4.666;2022-12-18T04:44:07;86.13;;;26.97;;
38615;SDS011;24370;51.986;4.666;2022-12-18T04:46:32;77.07;;;27.03;;
38615;SDS011;24370;51.986;4.666;2022-12-18T04:48:58;82.30;;;27.33;;
38615;SDS011;24370;51.986;4.666;2022-12-18T04:51:23;68.13;;;23.83;;
38615;SDS011;24370;51.986;4.666;2022-12-18T04:53:49;84.80;;;27.57;;
38615;SDS011;24370;51.986;4.666;2022-12-18T04:56:14;82.93;;;25.53;;
38615;SDS011;24370;51.986;4.666;2022-12-18T04:58:41;83.37;;;25.83;;
38615;SDS011;24370;51.986;4.666;2022-12-18T05:01:08;80.13;;;28.27;;
38615;SDS011;24370;51.986;4.666;2022-12-18T05:03:35;84.97;;;28.70;;
38615;SDS011;24370;51.986;4.666;2022-12-18T05:06:01;84.37;;;27.67;;
38615;SDS011;24370;51.986;4.666;2022-12-18T05:08:26;81.60;;;26.17;;
38615;SDS011;24370;51.986;4.666;2022-12-18T05:11:07;85.20;;;27.57;;
38615;SDS011;24370;51.986;4.666;2022-12-18T05:13:34;78.82;;;23.88;;
38615;SDS011;24370;51.986;4.666;2022-12-18T05:16:00;80.40;;;25.37;;
38615;SDS011;24370;51.986;4.666;2022-12-18T05:18:26;87.70;;;25.63;;
38615;SDS011;24370;51.986;4.666;2022-12-18T05:20:52;83.73;;;26.83;;
38615;SDS011;24370;51.986;4.666;2022-12-18T05:23:18;82.13;;;26.90;;
38615;SDS011;24370;51.986;4.666;2022-12-18T05:25:52;82.27;;;27.03;;
38615;SDS011;24370;51.986;4.666;2022-12-18T05:28:19;80.23;;;26.30;;
38615;SDS011;24370;51.986;4.666;2022-12-18T05:30:49;84.67;;;25.53;;
38615;SDS011;24370;51.986;4.666;2022-12-18T05:33:15;73.43;;;24.97;;
38615;SDS011;24370;51.986;4.666;2022-12-18T05:35:41;76.80;;;26.00;;
38615;SDS011;24370;51.986;4.666;2022-12-18T05:38:06;88.23;;;27.70;;
38615;SDS011;24370;51.986;4.666;2022-12-18T05:40:32;74.53;;;26.30;;
38615;SDS011;24370;51.986;4.666;2022-12-18T05:42:57;79.87;;;26.27;;
38615;SDS011;24370;51.986;4.666;2022-12-18T05:45:22;78.33;;;24.37;;
38615;SDS011;24370;51.986;4.666;2022-12-18T05:47:48;83.10;;;26.73;;
38615;SDS011;24370;51.986;4.666;2022-12-18T05:50:13;69.13;;;25.83;;
38615;SDS011;24370;51.986;4.666;2022-12-18T05:52:38;78.03;;;26.37;;
38615;SDS011;24370;51.986;4.666;2022-12-18T05:55:04;66.00;;;24.00;;
38615;SDS011;24370;51.986;4.666;2022-12-18T05:57:29;74.67;;;24.33;;
38615;SDS011;24370;51.986;4.666;2022-12-18T05:59:55;66.80;;;23.07;;
38615;SDS011;24370;51.986;4.666;2022-12-18T06:02:20;75.23;;;26.20;;
38615;SDS011;24370;51.986;4.666;2022-12-18T06:04:46;68.83;;;23.43;;
38615;SDS011;24370;51.986;4.666;2022-12-18T06:07:11;65.97;;;23.67;;
38615;SDS011;24370;51.986;4.666;2022-12-18T06:09:37;61.73;;;22.80;;
38615;SDS011;24370;51.986;4.666;2022-12-18T06:12:03;68.53;;;22.47;;
38615;SDS011;24370;51.986;4.666;2022-12-18T06:14:28;69.07;;;24.20;;
38615;SDS011;24370;51.986;4.666;2022-12-18T06:16:54;70.70;;;22.83;;
38615;SDS011;24370;51.986;4.666;2022-12-18T06:19:19;64.40;;;22.80;;
38615;SDS011;24370;51.986;4.666;2022-12-18T06:21:45;61.83;;;23.67;;
38615;SDS011;24370;51.986;4.666;2022-12-18T06:24:10;67.17;;;22.03;;
38615;SDS011;24370;51.986;4.666;2022-12-18T06:26:39;64.87;;;22.10;;
38615;SDS011;24370;51.986;4.666;2022-12-18T06:29:04;68.20;;;21.97;;
38615;SDS011;24370;51.986;4.666;2022-12-18T06:31:30;58.10;;;22.43;;
38615;SDS011;24370;51.986;4.666;2022-12-18T06:33:56;62.70;;;23.30;;
38615;SDS011;24370;51.986;4.666;2022-12-18T06:36:21;60.83;;;21.47;;
38615;SDS011;24370;51.986;4.666;2022-12-18T06:38:47;53.07;;;20.23;;
38615;SDS011;24370;51.986;4.666;2022-12-18T06:41:13;52.27;;;21.00;;
38615;SDS011;24370;51.986;4.666;2022-12-18T06:43:40;59.43;;;20.30;;
38615;SDS011;24370;51.986;4.666;2022-12-18T06:46:06;52.90;;;19.70;;
38615;SDS011;24370;51.986;4.666;2022-12-18T06:48:32;51.13;;;19.07;;
38615;SDS011;24370;51.986;4.666;2022-12-18T06:50:57;52.20;;;18.07;;
38615;SDS011;24370;51.986;4.666;2022-12-18T06:53:23;52.77;;;20.37;;
38615;SDS011;24370;51.986;4.666;2022-12-18T06:55:49;42.47;;;19.00;;
38615;SDS011;24370;51.986;4.666;2022-12-18T06:58:14;48.70;;;18.87;;
38615;SDS011;24370;51.986;4.666;2022-12-18T07:00:40;55.47;;;20.17;;
38615;SDS011;24370;51.986;4.666;2022-12-18T07:03:06;50.67;;;17.67;;
38615;SDS011;24370;51.986;4.666;2022-12-18T07:05:31;43.97;;;16.77;;
38615;SDS011;24370;51.986;4.666;2022-12-18T07:07:57;46.10;;;18.13;;
38615;SDS011;24370;51.986;4.666;2022-12-18T07:10:23;56.00;;;19.50;;
38615;SDS011;24370;51.986;4.666;2022-12-18T07:12:48;49.77;;;18.07;;
38615;SDS011;24370;51.986;4.666;2022-12-18T07:15:13;39.67;;;15.70;;
38615;SDS011;24370;51.986;4.666;2022-12-18T07:17:39;49.67;;;19.17;;
38615;SDS011;24370;51.986;4.666;2022-12-18T07:20:04;43.13;;;16.70;;
38615;SDS011;24370;51.986;4.666;2022-12-18T07:22:30;50.60;;;19.37;;
38615;SDS011;24370;51.986;4.666;2022-12-18T07:24:55;44.10;;;20.83;;
38615;SDS011;24370;51.986;4.666;2022-12-18T07:27:21;52.63;;;20.00;;
38615;SDS011;24370;51.986;4.666;2022-12-18T07:29:47;50.93;;;19.77;;
38615;SDS011;24370;51.986;4.666;2022-12-18T07:32:13;46.60;;;19.37;;
38615;SDS011;24370;51.986;4.666;2022-12-18T07:34:38;50.03;;;19.20;;
38615;SDS011;24370;51.986;4.666;2022-12-18T07:37:04;44.43;;;19.57;;
38615;SDS011;24370;51.986;4.666;2022-12-18T07:39:29;47.27;;;18.03;;
38615;SDS011;24370;51.986;4.666;2022-12-18T07:41:55;43.60;;;18.23;;
38615;SDS011;24370;51.986;4.666;2022-12-18T07:44:39;43.27;;;17.93;;
38615;SDS011;24370;51.986;4.666;2022-12-18T07:47:05;43.93;;;17.57;;
38615;SDS011;24370;51.986;4.666;2022-12-18T07:49:30;41.80;;;16.63;;
38615;SDS011;24370;51.986;4.666;2022-12-18T07:51:56;35.70;;;17.13;;
38615;SDS011;24370;51.986;4.666;2022-12-18T07:54:22;45.10;;;17.23;;
38615;SDS011;24370;51.986;4.666;2022-12-18T07:56:48;41.50;;;17.60;;
38615;SDS011;24370;51.986;4.666;2022-12-18T07:59:14;46.77;;;19.10;;
38615;SDS011;24370;51.986;4.666;2022-12-18T08:01:39;41.30;;;17.33;;
38615;SDS011;24370;51.986;4.666;2022-12-18T08:04:05;42.13;;;17.17;;
38615;SDS011;24370;51.986;4.666;2022-12-18T08:06:30;45.70;;;17.87;;
38615;SDS011;24370;51.986;4.666;2022-12-18T08:08:56;43.53;;;18.40;;
38615;SDS011;24370;51.986;4.666;2022-12-18T08:11:22;38.77;;;16.83;;
38615;SDS011;24370;51.986;4.666;2022-12-18T08:13:48;41.23;;;17.30;;
38615;SDS011;24370;51.986;4.666;2022-12-18T08:16:14;49.47;;;19.17;;
38615;SDS011;24370;51.986;4.666;2022-12-18T08:18:40;44.33;;;17.93;;
38615;SDS011;24370;51.986;4.666;2022-12-18T08:21:12;41.20;;;18.50;;
38615;SDS011;24370;51.986;4.666;2022-12-18T08:23:40;41.30;;;16.63;;
38615;SDS011;24370;51.986;4.666;2022-12-18T08:26:06;43.30;;;17.53;;
38615;SDS011;24370;51.986;4.666;2022-12-18T08:28:31;42.47;;;16.57;;
38615;SDS011;24370;51.986;4.666;2022-12-18T08:30:57;43.70;;;16.97;;
38615;SDS011;24370;51.986;4.666;2022-12-18T08:33:22;32.37;;;15.30;;
38615;SDS011;24370;51.986;4.666;2022-12-18T08:35:48;46.70;;;17.10;;
38615;SDS011;24370;51.986;4.666;2022-12-18T08:38:13;40.97;;;17.27;;
38615;SDS011;24370;51.986;4.666;2022-12-18T08:40:39;39.77;;;18.63;;
38615;SDS011;24370;51.986;4.666;2022-12-18T08:43:04;46.67;;;17.80;;
38615;SDS011;24370;51.986;4.666;2022-12-18T08:45:50;40.10;;;17.53;;
38615;SDS011;24370;51.986;4.666;2022-12-18T08:48:15;38.73;;;16.90;;
38615;SDS011;24370;51.986;4.666;2022-12-18T08:50:40;39.57;;;17.93;;
38615;SDS011;24370;51.986;4.666;2022-12-18T08:53:06;40.80;;;17.37;;
38615;SDS011;24370;51.986;4.666;2022-12-18T08:55:31;37.57;;;16.63;;
38615;SDS011;24370;51.986;4.666;2022-12-18T08:57:57;43.37;;;18.93;;
38615;SDS011;24370;51.986;4.666;2022-12-18T09:00:22;41.07;;;17.67;;
38615;SDS011;24370;51.986;4.666;2022-12-18T09:02:47;40.30;;;16.80;;
38615;SDS011;24370;51.986;4.666;2022-12-18T09:05:13;41.03;;;16.83;;
38615;SDS011;24370;51.986;4.666;2022-12-18T09:07:38;42.63;;;18.03;;
38615;SDS011;24370;51.986;4.666;2022-12-18T09:10:04;33.77;;;15.60;;
38615;SDS011;24370;51.986;4.666;2022-12-18T09:12:30;36.73;;;16.57;;
38615;SDS011;24370;51.986;4.666;2022-12-18T09:14:55;34.60;;;17.23;;
38615;SDS011;24370;51.986;4.666;2022-12-18T09:17:21;25.93;;;11.83;;
38615;SDS011;24370;51.986;4.666;2022-12-18T09:19:46;35.33;;;16.67;;
38615;SDS011;24370;51.986;4.666;2022-12-18T09:22:12;38.90;;;15.67;;
38615;SDS011;24370;51.986;4.666;2022-12-18T09:24:37;40.27;;;16.07;;
38615;SDS011;24370;51.986;4.666;2022-12-18T09:27:03;40.30;;;17.43;;
38615;SDS011;24370;51.986;4.666;2022-12-18T09:29:28;37.63;;;16.90;;
38615;SDS011;24370;51.986;4.666;2022-12-18T09:31:54;35.37;;;16.63;;
38615;SDS011;24370;51.986;4.666;2022-12-18T09:34:19;35.50;;;16.00;;
38615;SDS011;24370;51.986;4.666;2022-12-18T09:36:46;38.67;;;16.73;;
38615;SDS011;24370;51.986;4.666;2022-12-18T09:39:12;41.30;;;16.40;;
38615;SDS011;24370;51.986;4.666;2022-12-18T09:41:41;42.07;;;16.80;;
38615;SDS011;24370;51.986;4.666;2022-12-18T09:44:35;39.87;;;14.90;;
38615;SDS011;24370;51.986;4.666;2022-12-18T09:47:09;40.07;;;15.90;;
38615;SDS011;24370;51.986;4.666;2022-12-18T09:49:40;30.87;;;14.10;;
38615;SDS011;24370;51.986;4.666;2022-12-18T09:52:12;35.57;;;16.37;;
38615;SDS011;24370;51.986;4.666;2022-12-18T09:54:43;33.63;;;14.73;;
38615;SDS011;24370;51.986;4.666;2022-12-18T09:57:18;35.58;;;15.75;;
38615;SDS011;24370;51.986;4.666;2022-12-18T09:59:49;26.60;;;11.50;;
38615;SDS011;24370;51.986;4.666;2022-12-18T10:02:21;26.98;;;12.60;;
38615;SDS011;24370;51.986;4.666;2022-12-18T10:04:53;31.53;;;15.30;;
38615;SDS011;24370;51.986;4.666;2022-12-18T10:07:35;35.00;;;15.37;;
38615;SDS011;24370;51.986;4.666;2022-12-18T10:10:14;35.70;;;16.17;;
38615;SDS011;24370;51.986;4.666;2022-12-18T10:15:23;32.43;;;14.33;;
38615;SDS011;24370;51.986;4.666;2022-12-18T10:17:58;32.27;;;14.77;;
38615;SDS011;24370;51.986;4.666;2022-12-18T10:20:41;32.97;;;14.60;;
38615;SDS011;24370;51.986;4.666;2022-12-18T10:25:42;34.97;;;14.80;;
38615;SDS011;24370;51.986;4.666;2022-12-18T10:28:16;30.70;;;14.33;;
38615;SDS011;24370;51.986;4.666;2022-12-18T10:30:43;37.00;;;15.67;;
38615;SDS011;24370;51.986;4.666;2022-12-18T10:33:13;28.50;;;13.47;;
38615;SDS011;24370;51.986;4.666;2022-12-18T10:35:42;32.50;;;14.20;;
38615;SDS011;24370;51.986;4.666;2022-12-18T10:40:56;35.97;;;14.93;;
38615;SDS011;24370;51.986;4.666;2022-12-18T10:43:23;31.65;;;14.38;;
38615;SDS011;24370;51.986;4.666;2022-12-18T10:48:25;34.30;;;14.47;;
38615;SDS011;24370;51.986;4.666;2022-12-18T10:50:51;29.67;;;13.63;;
38615;SDS011;24370;51.986;4.666;2022-12-18T10:53:21;31.33;;;14.13;;
38615;SDS011;24370;51.986;4.666;2022-12-18T10:55:49;34.30;;;14.30;;
38615;SDS011;24370;51.986;4.666;2022-12-18T10:58:21;30.80;;;13.50;;
38615;SDS011;24370;51.986;4.666;2022-12-18T11:03:31;33.43;;;15.37;;
38615;SDS011;24370;51.986;4.666;2022-12-18T11:06:15;33.08;;;14.35;;
38615;SDS011;24370;51.986;4.666;2022-12-18T11:08:43;31.90;;;15.37;;
38615;SDS011;24370;51.986;4.666;2022-12-18T11:11:22;31.93;;;15.17;;
38615;SDS011;24370;51.986;4.666;2022-12-18T11:13:57;28.27;;;15.03;;
38615;SDS011;24370;51.986;4.666;2022-12-18T11:16:29;33.20;;;15.27;;
38615;SDS011;24370;51.986;4.666;2022-12-18T11:19:12;33.17;;;16.60;;
38615;SDS011;24370;51.986;4.666;2022-12-18T11:21:46;34.73;;;15.87;;
38615;SDS011;24370;51.986;4.666;2022-12-18T11:24:19;34.53;;;16.97;;
38615;SDS011;24370;51.986;4.666;2022-12-18T11:26:51;34.93;;;16.33;;
38615;SDS011;24370;51.986;4.666;2022-12-18T11:29:18;39.07;;;16.23;;
38615;SDS011;24370;51.986;4.666;2022-12-18T11:36:55;35.47;;;16.73;;
38615;SDS011;24370;51.986;4.666;2022-12-18T11:39:36;36.43;;;16.70;;
38615;SDS011;24370;51.986;4.666;2022-12-18T11:44:49;34.63;;;16.20;;
38615;SDS011;24370;51.986;4.666;2022-12-18T11:47:28;33.40;;;17.27;;
38615;SDS011;24370;51.986;4.666;2022-12-18T11:50:05;33.17;;;15.10;;
38615;SDS011;24370;51.986;4.666;2022-12-18T11:52:39;34.63;;;18.40;;
38615;SDS011;24370;51.986;4.666;2022-12-18T11:55:13;36.43;;;15.37;;
38615;SDS011;24370;51.986;4.666;2022-12-18T11:58:11;34.37;;;16.03;;
38615;SDS011;24370;51.986;4.666;2022-12-18T12:01:20;33.73;;;16.00;;
38615;SDS011;24370;51.986;4.666;2022-12-18T12:26:13;33.60;;;16.73;;
38615;SDS011;24370;51.986;4.666;2022-12-18T12:36:52;36.73;;;17.03;;
38615;SDS011;24370;51.986;4.666;2022-12-18T12:39:38;31.13;;;15.30;;
38615;SDS011;24370;51.986;4.666;2022-12-18T12:42:10;36.67;;;17.40;;
38615;SDS011;24370;51.986;4.666;2022-12-18T12:45:05;38.80;;;17.60;;
38615;SDS011;24370;51.986;4.666;2022-12-18T12:47:40;33.13;;;13.87;;
38615;SDS011;24370;51.986;4.666;2022-12-18T12:50:12;34.00;;;17.03;;
38615;SDS011;24370;51.986;4.666;2022-12-18T12:52:50;39.30;;;17.70;;
38615;SDS011;24370;51.986;4.666;2022-12-18T12:55:28;37.37;;;17.10;;
38615;SDS011;24370;51.986;4.666;2022-12-18T12:58:15;34.97;;;18.40;;
38615;SDS011;24370;51.986;4.666;2022-12-18T13:01:17;35.03;;;16.63;;
38615;SDS011;24370;51.986;4.666;2022-12-18T13:07:12;36.20;;;16.17;;
38615;SDS011;24370;51.986;4.666;2022-12-18T13:12:58;29.93;;;14.90;;
38615;SDS011;24370;51.986;4.666;2022-12-18T13:15:28;45.15;;;18.45;;
38615;SDS011;24370;51.986;4.666;2022-12-18T13:18:06;31.97;;;16.40;;
38615;SDS011;24370;51.986;4.666;2022-12-18T13:20:42;36.27;;;16.20;;
38615;SDS011;24370;51.986;4.666;2022-12-18T13:25:47;29.00;;;15.00;;
38615;SDS011;24370;51.986;4.666;2022-12-18T13:28:14;36.73;;;15.73;;
38615;SDS011;24370;51.986;4.666;2022-12-18T13:45:49;31.60;;;16.93;;
38615;SDS011;24370;51.986;4.666;2022-12-18T13:48:36;33.37;;;16.63;;
38615;SDS011;24370;51.986;4.666;2022-12-18T13:56:43;32.33;;;16.83;;
38615;SDS011;24370;51.986;4.666;2022-12-18T14:01:47;32.30;;;14.83;;
38615;SDS011;24370;51.986;4.666;2022-12-18T14:04:22;34.87;;;16.57;;
38615;SDS011;24370;51.986;4.666;2022-12-18T14:09:49;35.47;;;16.40;;
38615;SDS011;24370;51.986;4.666;2022-12-18T14:12:21;36.00;;;17.23;;
38615;SDS011;24370;51.986;4.666;2022-12-18T14:15:22;36.33;;;17.83;;
38615;SDS011;24370;51.986;4.666;2022-12-18T14:17:55;33.90;;;14.87;;
38615;SDS011;24370;51.986;4.666;2022-12-18T14:20:24;36.77;;;16.00;;
38615;SDS011;24370;51.986;4.666;2022-12-18T14:22:51;37.63;;;17.93;;
38615;SDS011;24370;51.986;4.666;2022-12-18T14:27:45;42.63;;;19.20;;
38615;SDS011;24370;51.986;4.666;2022-12-18T14:33:02;41.43;;;19.73;;
38615;SDS011;24370;51.986;4.666;2022-12-18T14:35:35;43.80;;;18.60;;
38615;SDS011;24370;51.986;4.666;2022-12-18T14:38:23;41.27;;;18.97;;
38615;SDS011;24370;51.986;4.666;2022-12-18T14:40:57;34.70;;;16.77;;
38615;SDS011;24370;51.986;4.666;2022-12-18T14:43:24;36.43;;;17.43;;
38615;SDS011;24370;51.986;4.666;2022-12-18T14:45:51;35.90;;;18.63;;
38615;SDS011;24370;51.986;4.666;2022-12-18T14:48:19;32.97;;;16.60;;
38615;SDS011;24370;51.986;4.666;2022-12-18T14:50:54;35.80;;;17.27;;
38615;SDS011;24370;51.986;4.666;2022-12-18T14:56:11;35.73;;;19.00;;
38615;SDS011;24370;51.986;4.666;2022-12-18T14:58:44;39.30;;;17.60;;
38615;SDS011;24370;51.986;4.666;2022-12-18T15:01:17;37.37;;;17.97;;
38615;SDS011;24370;51.986;4.666;2022-12-18T15:03:45;38.60;;;17.60;;
38615;SDS011;24370;51.986;4.666;2022-12-18T15:06:15;37.40;;;16.80;;
38615;SDS011;24370;51.986;4.666;2022-12-18T15:09:00;35.70;;;18.93;;
38615;SDS011;24370;51.986;4.666;2022-12-18T15:14:21;42.50;;;17.17;;
38615;SDS011;24370;51.986;4.666;2022-12-18T15:16:52;38.88;;;17.13;;
38615;SDS011;24370;51.986;4.666;2022-12-18T15:19:19;39.70;;;18.47;;
38615;SDS011;24370;51.986;4.666;2022-12-18T15:21:47;40.23;;;17.40;;
38615;SDS011;24370;51.986;4.666;2022-12-18T15:24:21;40.40;;;18.77;;
38615;SDS011;24370;51.986;4.666;2022-12-18T15:26:51;31.63;;;15.83;;
38615;SDS011;24370;51.986;4.666;2022-12-18T15:29:21;37.13;;;17.30;;
38615;SDS011;24370;51.986;4.666;2022-12-18T15:32:10;33.73;;;17.50;;
38615;SDS011;24370;51.986;4.666;2022-12-18T15:34:44;38.57;;;17.20;;
38615;SDS011;24370;51.986;4.666;2022-12-18T15:37:09;38.50;;;16.30;;
38615;SDS011;24370;51.986;4.666;2022-12-18T15:39:35;37.63;;;17.00;;
38615;SDS011;24370;51.986;4.666;2022-12-18T15:42:01;38.10;;;17.33;;
38615;SDS011;24370;51.986;4.666;2022-12-18T15:44:45;34.57;;;16.63;;
38615;SDS011;24370;51.986;4.666;2022-12-18T15:47:11;35.80;;;15.83;;
38615;SDS011;24370;51.986;4.666;2022-12-18T15:49:37;34.93;;;17.60;;
38615;SDS011;24370;51.986;4.666;2022-12-18T15:52:03;39.63;;;16.87;;
38615;SDS011;24370;51.986;4.666;2022-12-18T15:54:29;34.00;;;17.00;;
38615;SDS011;24370;51.986;4.666;2022-12-18T15:57:13;33.77;;;17.47;;
38615;SDS011;24370;51.986;4.666;2022-12-18T15:59:52;36.47;;;16.50;;
38615;SDS011;24370;51.986;4.666;2022-12-18T16:02:20;39.57;;;17.23;;
38615;SDS011;24370;51.986;4.666;2022-12-18T16:04:47;39.93;;;16.60;;
38615;SDS011;24370;51.986;4.666;2022-12-18T16:07:13;35.60;;;17.27;;
38615;SDS011;24370;51.986;4.666;2022-12-18T16:09:38;38.37;;;17.40;;
38615;SDS011;24370;51.986;4.666;2022-12-18T16:12:17;36.27;;;16.27;;
38615;SDS011;24370;51.986;4.666;2022-12-18T16:14:46;35.73;;;17.50;;
38615;SDS011;24370;51.986;4.666;2022-12-18T16:17:11;36.70;;;18.23;;
38615;SDS011;24370;51.986;4.666;2022-12-18T16:19:38;32.57;;;16.43;;
38615;SDS011;24370;51.986;4.666;2022-12-18T16:22:04;40.63;;;18.30;;
38615;SDS011;24370;51.986;4.666;2022-12-18T16:24:31;36.07;;;16.13;;
38615;SDS011;24370;51.986;4.666;2022-12-18T16:26:59;40.00;;;17.83;;
38615;SDS011;24370;51.986;4.666;2022-12-18T16:29:25;40.50;;;17.23;;
38615;SDS011;24370;51.986;4.666;2022-12-18T16:31:59;35.97;;;16.40;;
38615;SDS011;24370;51.986;4.666;2022-12-18T16:36:55;37.63;;;17.00;;
38615;SDS011;24370;51.986;4.666;2022-12-18T16:39:22;37.83;;;17.67;;
38615;SDS011;24370;51.986;4.666;2022-12-18T16:41:47;44.03;;;17.67;;